createdAt,value
2023-05-19T00:00:38.068Z,75.49
2023-05-19T00:01:38.034Z,75.90
2023-05-19T00:02:38.109Z,76.51
2023-05-19T00:03:38.036Z,76.82
2023-05-19T00:04:38.022Z,76.93
2023-05-19T00:05:37.986Z,77.13
2023-05-19T00:06:38.023Z,77.34
2023-05-19T00:07:37.984Z,77.34
2023-05-19T00:08:37.994Z,77.23
2023-05-19T00:09:37.956Z,77.44
2023-05-19T00:10:37.976Z,77.13
2023-05-19T00:11:37.931Z,77.34
2023-05-19T00:12:37.975Z,77.44
2023-05-19T00:13:37.919Z,77.58
2023-05-19T00:14:37.934Z,77.27
2023-05-19T00:15:37.900Z,77.58
2023-05-19T00:16:37.914Z,77.58
2023-05-19T00:17:37.937Z,77.78
2023-05-19T00:18:37.951Z,77.68
2023-05-19T00:19:37.837Z,77.58
2023-05-19T00:20:37.854Z,77.27
2023-05-19T00:21:37.820Z,77.06
2023-05-19T00:22:37.842Z,77.06
2023-05-19T00:23:37.796Z,76.86
2023-05-19T00:24:37.828Z,76.76
2023-05-19T00:25:37.778Z,76.65
2023-05-19T00:26:37.812Z,76.55
2023-05-19T00:27:37.752Z,76.86
2023-05-19T00:28:37.774Z,76.76
2023-05-19T00:29:37.737Z,76.25
2023-05-19T00:30:37.754Z,76.69
2023-05-19T00:31:37.721Z,76.79
2023-05-19T00:32:37.792Z,76.69
2023-05-19T00:33:37.714Z,77.10
2023-05-19T00:34:37.718Z,77.20
2023-05-19T00:35:37.677Z,77.00
2023-05-19T00:36:37.675Z,77.41
2023-05-19T00:37:37.644Z,77.10
2023-05-19T00:38:37.653Z,76.48
2023-05-19T00:39:37.646Z,76.48
2023-05-19T00:40:37.656Z,76.59
2023-05-19T00:41:37.603Z,76.90
2023-05-19T00:42:37.612Z,76.69
2023-05-19T00:43:37.593Z,76.48
2023-05-19T00:44:37.613Z,76.38
2023-05-19T00:45:37.569Z,76.28
2023-05-19T00:46:37.611Z,76.69
2023-05-19T00:47:37.564Z,77.41
2023-05-19T00:48:37.558Z,77.48
2023-05-19T00:49:37.521Z,77.68
2023-05-19T00:50:37.551Z,78.09
2023-05-19T00:51:37.498Z,78.30
2023-05-19T00:52:37.517Z,78.30
2023-05-19T00:53:37.477Z,77.58
2023-05-19T00:54:37.492Z,77.06
2023-05-19T00:55:37.469Z,76.86
2023-05-19T00:56:37.469Z,76.35
2023-05-19T00:57:37.436Z,76.14
2023-05-19T00:58:37.455Z,76.76
2023-05-19T00:59:37.409Z,76.76
2023-05-19T01:00:37.480Z,76.65
2023-05-19T01:01:37.567Z,76.65
2023-05-19T01:02:37.467Z,76.45
2023-05-19T01:03:37.485Z,76.35
2023-05-19T01:04:37.380Z,76.25
2023-05-19T01:05:37.351Z,75.80
2023-05-19T01:06:37.363Z,75.38
2023-05-19T01:07:37.345Z,75.90
2023-05-19T01:08:37.518Z,75.70
2023-05-19T01:09:37.317Z,75.29
2023-05-19T01:10:37.311Z,75.18
2023-05-19T01:11:37.294Z,74.87
2023-05-19T01:12:37.322Z,74.57
2023-05-19T01:13:38.151Z,74.46
2023-05-19T01:14:37.269Z,75.18
2023-05-19T01:15:37.247Z,75.49
2023-05-19T01:16:37.297Z,75.08
2023-05-19T01:17:37.292Z,75.38
2023-05-19T01:18:37.255Z,75.59
2023-05-19T01:19:37.212Z,75.59
2023-05-19T01:20:37.224Z,76.10
2023-05-19T01:21:37.193Z,76.00
2023-05-19T01:22:37.202Z,76.21
2023-05-19T01:23:37.183Z,75.90
2023-05-19T01:24:37.165Z,75.59
2023-05-19T01:25:37.138Z,75.38
2023-05-19T01:26:37.162Z,75.29
2023-05-19T01:27:37.132Z,75.18
2023-05-19T01:28:37.133Z,75.38
2023-05-19T01:29:37.099Z,75.49
2023-05-19T01:30:37.111Z,75.90
2023-05-19T01:31:37.091Z,75.49
2023-05-19T01:32:37.119Z,75.38
2023-05-19T01:33:37.067Z,75.29
2023-05-19T01:34:37.061Z,75.18
2023-05-19T01:35:37.043Z,75.29
2023-05-19T01:36:37.054Z,75.18
2023-05-19T01:37:37.013Z,74.67
2023-05-19T01:38:37.035Z,74.98
2023-05-19T01:39:37.013Z,75.08
2023-05-19T01:40:37.011Z,75.59
2023-05-19T01:41:36.966Z,76.10
2023-05-19T01:42:36.975Z,75.70
2023-05-19T01:43:36.947Z,75.18
2023-05-19T01:44:36.965Z,75.18
2023-05-19T01:45:36.981Z,74.36
2023-05-19T01:46:36.986Z,74.26
2023-05-19T01:47:36.956Z,74.57
2023-05-19T01:48:36.914Z,74.26
2023-05-19T01:49:36.895Z,74.15
2023-05-19T01:50:36.925Z,74.12
2023-05-19T01:51:36.881Z,73.81
2023-05-19T01:52:36.893Z,73.81
2023-05-19T01:53:36.852Z,73.50
2023-05-19T01:54:36.851Z,73.40
2023-05-19T01:55:36.830Z,73.50
2023-05-19T01:56:36.833Z,73.50
2023-05-19T01:57:36.814Z,73.61
2023-05-19T01:58:36.802Z,73.19
2023-05-19T01:59:36.803Z,73.71
2023-05-19T02:00:36.784Z,73.91
2023-05-19T02:01:36.829Z,73.19
2023-05-19T02:02:36.788Z,73.30
2023-05-19T02:03:36.740Z,73.10
2023-05-19T02:04:36.810Z,73.40
2023-05-19T02:05:36.729Z,74.02
2023-05-19T02:06:36.735Z,73.40
2023-05-19T02:07:36.700Z,73.61
2023-05-19T02:08:36.716Z,72.78
2023-05-19T02:09:36.677Z,72.89
2023-05-19T02:10:36.705Z,72.38
2023-05-19T02:11:36.653Z,72.48
2023-05-19T02:12:36.658Z,72.89
2023-05-19T02:13:36.660Z,73.16
2023-05-19T02:14:36.651Z,72.75
2023-05-19T02:15:36.639Z,71.83
2023-05-19T02:16:36.643Z,71.72
2023-05-19T02:17:36.631Z,71.62
2023-05-19T02:18:36.704Z,71.72
2023-05-19T02:19:36.582Z,71.83
2023-05-19T02:20:36.596Z,71.72
2023-05-19T02:21:36.544Z,71.52
2023-05-19T02:22:36.557Z,71.21
2023-05-19T02:23:36.522Z,71.31
2023-05-19T02:24:36.523Z,71.52
2023-05-19T02:25:36.518Z,71.21
2023-05-19T02:26:36.507Z,71.21
2023-05-19T02:27:36.492Z,71.93
2023-05-19T02:28:36.520Z,72.03
2023-05-19T02:29:36.470Z,71.83
2023-05-19T02:30:36.465Z,71.83
2023-05-19T02:31:36.480Z,71.83
2023-05-19T02:32:36.606Z,71.93
2023-05-19T02:33:36.441Z,71.83
2023-05-19T02:34:36.440Z,72.03
2023-05-19T02:35:36.391Z,71.72
2023-05-19T02:36:36.399Z,72.14
2023-05-19T02:37:36.380Z,72.34
2023-05-19T02:38:36.377Z,72.44
2023-05-19T02:39:36.421Z,72.65
2023-05-19T02:40:36.362Z,72.96
2023-05-19T02:41:36.326Z,72.34
2023-05-19T02:42:36.358Z,72.96
2023-05-19T02:43:36.321Z,72.75
2023-05-19T02:44:36.321Z,73.06
2023-05-19T02:45:36.299Z,73.36
2023-05-19T02:46:36.362Z,73.47
2023-05-19T02:47:37.180Z,73.16
2023-05-19T02:48:36.298Z,73.36
2023-05-19T02:49:36.276Z,73.78
2023-05-19T02:50:36.256Z,74.08
2023-05-19T02:51:36.226Z,74.19
2023-05-19T02:52:36.262Z,74.49
2023-05-19T02:53:36.210Z,74.60
2023-05-19T02:54:36.205Z,74.19
2023-05-19T02:55:36.183Z,74.08
2023-05-19T02:56:36.201Z,74.08
2023-05-19T02:57:36.166Z,73.88
2023-05-19T02:58:36.207Z,74.08
2023-05-19T02:59:36.147Z,73.88
2023-05-19T03:00:36.145Z,73.88
2023-05-19T03:01:36.108Z,74.08
2023-05-19T03:02:36.226Z,74.49
2023-05-19T03:03:36.148Z,74.19
2023-05-19T03:04:36.065Z,74.19
2023-05-19T03:05:36.048Z,74.32
2023-05-19T03:06:36.093Z,74.08
2023-05-19T03:07:36.066Z,74.60
2023-05-19T03:08:36.053Z,74.49
2023-05-19T03:09:35.979Z,74.40
2023-05-19T03:10:35.996Z,73.98
2023-05-19T03:11:36.012Z,73.78
2023-05-19T03:12:36.033Z,74.08
2023-05-19T03:13:35.999Z,74.49
2023-05-19T03:14:35.980Z,73.98
2023-05-19T03:15:35.918Z,74.70
2023-05-19T03:16:36.031Z,74.91
2023-05-19T03:17:35.964Z,75.21
2023-05-19T03:18:35.902Z,75.32
2023-05-19T03:19:35.889Z,75.42
2023-05-19T03:20:35.890Z,75.21
2023-05-19T03:21:35.861Z,75.21
2023-05-19T03:22:35.878Z,75.01
2023-05-19T03:23:35.845Z,74.80
2023-05-19T03:24:35.875Z,75.01
2023-05-19T03:25:35.813Z,75.01
2023-05-19T03:26:35.833Z,75.21
2023-05-19T03:27:35.792Z,74.40
2023-05-19T03:28:35.812Z,74.19
2023-05-19T03:29:35.818Z,74.60
2023-05-19T03:30:35.779Z,74.49
2023-05-19T03:31:35.750Z,73.78
2023-05-19T03:32:35.846Z,74.08
2023-05-19T03:33:35.770Z,73.98
2023-05-19T03:34:35.750Z,73.98
2023-05-19T03:35:35.735Z,73.98
2023-05-19T03:36:35.732Z,73.88
2023-05-19T03:37:35.701Z,73.36
2023-05-19T03:38:35.709Z,73.16
2023-05-19T03:39:35.697Z,73.06
2023-05-19T03:40:35.669Z,73.54
2023-05-19T03:41:35.678Z,73.27
2023-05-19T03:42:35.635Z,72.72
2023-05-19T03:43:35.639Z,72.72
2023-05-19T03:44:35.611Z,72.92
2023-05-19T03:45:35.671Z,73.02
2023-05-19T03:46:35.590Z,72.72
2023-05-19T03:47:35.624Z,72.41
2023-05-19T03:48:35.578Z,72.31
2023-05-19T03:49:35.588Z,72.31
2023-05-19T03:50:35.551Z,72.10
2023-05-19T03:51:35.566Z,72.10
2023-05-19T03:52:35.530Z,72.41
2023-05-19T03:53:35.535Z,72.31
2023-05-19T03:54:35.519Z,72.20
2023-05-19T03:55:35.539Z,72.41
2023-05-19T03:56:35.487Z,72.20
2023-05-19T03:57:35.516Z,72.38
2023-05-19T03:58:35.464Z,72.78
2023-05-19T03:59:35.470Z,72.38
2023-05-19T04:00:35.707Z,72.38
2023-05-19T04:01:35.464Z,72.07
2023-05-19T04:02:35.545Z,71.76
2023-05-19T04:03:35.493Z,72.17
2023-05-19T04:04:35.429Z,72.38
2023-05-19T04:05:35.430Z,72.38
2023-05-19T04:06:35.382Z,72.38
2023-05-19T04:07:35.410Z,72.17
2023-05-19T04:08:35.362Z,72.48
2023-05-19T04:09:35.564Z,72.17
2023-05-19T04:10:35.356Z,72.27
2023-05-19T04:11:35.353Z,72.75
2023-05-19T04:12:35.317Z,72.24
2023-05-19T04:13:35.343Z,71.93
2023-05-19T04:14:35.295Z,71.32
2023-05-19T04:15:35.369Z,71.42
2023-05-19T04:16:35.314Z,71.42
2023-05-19T04:17:35.413Z,72.34
2023-05-19T04:18:35.284Z,72.14
2023-05-19T04:19:35.271Z,71.73
2023-05-19T04:20:35.269Z,71.42
2023-05-19T04:21:35.256Z,71.42
2023-05-19T04:22:35.227Z,71.42
2023-05-19T04:23:35.217Z,71.62
2023-05-19T04:24:35.186Z,71.83
2023-05-19T04:25:35.214Z,71.52
2023-05-19T04:26:35.170Z,71.22
2023-05-19T04:27:35.191Z,71.42
2023-05-19T04:28:35.171Z,71.73
2023-05-19T04:29:35.172Z,72.03
2023-05-19T04:30:35.267Z,72.03
2023-05-19T04:31:35.250Z,71.69
2023-05-19T04:32:35.190Z,72.31
2023-05-19T04:33:35.134Z,71.69
2023-05-19T04:34:35.082Z,71.69
2023-05-19T04:35:35.085Z,71.49
2023-05-19T04:36:35.062Z,72.11
2023-05-19T04:37:35.136Z,72.11
2023-05-19T04:38:35.041Z,72.00
2023-05-19T04:39:35.055Z,71.69
2023-05-19T04:40:35.194Z,72.00
2023-05-19T04:41:35.056Z,71.90
2023-05-19T04:42:35.016Z,71.90
2023-05-19T04:43:35.003Z,71.80
2023-05-19T04:44:34.999Z,72.11
2023-05-19T04:45:35.003Z,71.59
2023-05-19T04:46:34.978Z,71.39
2023-05-19T04:47:35.027Z,71.59
2023-05-19T04:48:34.946Z,71.69
2023-05-19T04:49:34.960Z,71.97
2023-05-19T04:50:35.086Z,71.77
2023-05-19T04:51:34.936Z,71.56
2023-05-19T04:52:34.908Z,71.36
2023-05-19T04:53:34.901Z,71.77
2023-05-19T04:54:34.885Z,71.15
2023-05-19T04:55:34.894Z,71.25
2023-05-19T04:56:34.848Z,71.04
2023-05-19T04:57:34.864Z,71.04
2023-05-19T04:58:34.825Z,70.94
2023-05-19T04:59:34.839Z,71.04
2023-05-19T05:00:34.897Z,71.04
2023-05-19T05:01:34.862Z,70.94
2023-05-19T05:02:34.872Z,71.36
2023-05-19T05:03:34.921Z,71.25
2023-05-19T05:04:34.763Z,71.53
2023-05-19T05:05:34.795Z,70.50
2023-05-19T05:06:34.757Z,70.61
2023-05-19T05:07:34.746Z,70.61
2023-05-19T05:08:34.716Z,69.68
2023-05-19T05:09:34.737Z,69.99
2023-05-19T05:10:34.933Z,69.89
2023-05-19T05:11:34.765Z,69.99
2023-05-19T05:12:34.678Z,70.09
2023-05-19T05:13:34.691Z,70.50
2023-05-19T05:14:34.650Z,70.50
2023-05-19T05:15:34.699Z,71.12
2023-05-19T05:16:34.722Z,70.57
2023-05-19T05:17:34.666Z,70.78
2023-05-19T05:18:34.608Z,70.78
2023-05-19T05:19:34.700Z,70.37
2023-05-19T05:20:34.788Z,69.96
2023-05-19T05:21:34.617Z,69.65
2023-05-19T05:22:34.570Z,69.14
2023-05-19T05:23:34.581Z,69.65
2023-05-19T05:24:34.543Z,69.42
2023-05-19T05:25:34.700Z,69.42
2023-05-19T05:26:34.535Z,69.82
2023-05-19T05:27:34.572Z,69.31
2023-05-19T05:28:34.518Z,68.90
2023-05-19T05:29:34.517Z,68.80
2023-05-19T05:30:34.478Z,69.38
2023-05-19T05:31:34.500Z,69.59
2023-05-19T05:32:34.535Z,69.38
2023-05-19T05:33:34.529Z,69.79
2023-05-19T05:34:34.444Z,69.69
2023-05-19T05:35:34.547Z,69.38
2023-05-19T05:36:34.410Z,69.79
2023-05-19T05:37:34.464Z,70.71
2023-05-19T05:38:34.397Z,70.27
2023-05-19T05:39:34.427Z,69.86
2023-05-19T05:40:34.378Z,69.65
2023-05-19T05:41:34.388Z,70.98
2023-05-19T05:42:34.360Z,68.74
2023-05-19T05:43:34.404Z,68.84
2023-05-19T05:44:34.353Z,70.47
2023-05-19T05:45:34.489Z,69.76
2023-05-19T05:46:34.362Z,68.43
2023-05-19T05:47:34.379Z,68.12
2023-05-19T05:48:34.295Z,68.50
2023-05-19T05:49:34.294Z,69.11
2023-05-19T05:50:34.279Z,69.42
2023-05-19T05:51:34.273Z,68.09
2023-05-19T05:52:34.248Z,68.09
2023-05-19T05:53:34.249Z,68.37
2023-05-19T05:54:34.239Z,68.06
2023-05-19T05:55:34.450Z,68.16
2023-05-19T05:56:34.205Z,68.77
2023-05-19T05:57:34.235Z,68.16
2023-05-19T05:58:35.735Z,67.55
2023-05-19T05:59:34.197Z,68.77
2023-05-19T06:00:34.445Z,68.06
2023-05-19T06:01:35.505Z,66.12
2023-05-19T06:02:34.193Z,67.14
2023-05-19T06:03:34.188Z,67.41
2023-05-19T06:04:34.146Z,67.01
2023-05-19T06:05:34.207Z,65.78
2023-05-19T06:06:34.109Z,66.19
2023-05-19T06:07:34.119Z,67.01
2023-05-19T06:08:34.097Z,66.39
2023-05-19T06:09:34.112Z,66.91
2023-05-19T06:10:34.493Z,67.01
2023-05-19T06:11:34.074Z,68.13
2023-05-19T06:12:34.064Z,67.18
2023-05-19T06:13:34.054Z,66.77
2023-05-19T06:14:34.026Z,66.88
2023-05-19T06:15:34.093Z,66.47
2023-05-19T06:16:34.065Z,66.97
2023-05-19T06:17:34.016Z,65.75
2023-05-19T06:18:33.972Z,65.25
2023-05-19T06:19:33.996Z,66.13
2023-05-19T06:20:34.250Z,65.72
2023-05-19T06:21:33.968Z,64.81
2023-05-19T06:22:34.004Z,64.81
2023-05-19T06:23:33.950Z,64.67
2023-05-19T06:24:33.941Z,64.67
2023-05-19T06:25:34.106Z,64.87
2023-05-19T06:26:33.880Z,64.57
2023-05-19T06:27:34.805Z,65.39
2023-05-19T06:28:33.872Z,64.95
2023-05-19T06:29:33.916Z,64.14
2023-05-19T06:30:34.088Z,62.71
2023-05-19T06:31:33.990Z,62.30
2023-05-19T06:32:33.913Z,61.90
2023-05-19T06:33:33.844Z,62.48
2023-05-19T06:34:33.802Z,62.48
2023-05-19T06:35:33.820Z,61.87
2023-05-19T06:36:33.778Z,62.27
2023-05-19T06:37:33.786Z,62.58
2023-05-19T06:38:33.762Z,61.74
2023-05-19T06:39:33.781Z,61.63
2023-05-19T06:40:34.023Z,61.22
2023-05-19T06:41:33.769Z,60.21
2023-05-19T06:42:33.717Z,61.51
2023-05-19T06:43:33.752Z,61.30
2023-05-19T06:44:33.700Z,61.20
2023-05-19T06:45:33.705Z,61.47
2023-05-19T06:46:33.703Z,59.95
2023-05-19T06:47:33.709Z,60.15
2023-05-19T06:48:33.689Z,59.75
2023-05-19T06:49:33.691Z,58.73
2023-05-19T06:50:33.853Z,60.25
2023-05-19T06:51:33.649Z,60.86
2023-05-19T06:52:33.613Z,60.05
2023-05-19T06:53:33.677Z,59.92
2023-05-19T06:54:33.619Z,60.22
2023-05-19T06:55:35.597Z,59.52
2023-05-19T06:56:33.569Z,59.08
2023-05-19T06:57:33.593Z,60.20
2023-05-19T06:58:33.558Z,58.95
2023-05-19T06:59:33.587Z,58.34
2023-05-19T07:00:33.752Z,57.43
2023-05-19T07:01:33.577Z,56.82
2023-05-19T07:02:33.576Z,56.90
2023-05-19T07:03:33.688Z,56.49
2023-05-19T07:04:33.488Z,57.60
2023-05-19T07:05:33.488Z,57.07
2023-05-19T07:06:33.462Z,56.46
2023-05-19T07:07:33.492Z,55.55
2023-05-19T07:08:33.449Z,55.04
2023-05-19T07:09:33.464Z,55.04
2023-05-19T07:10:33.717Z,56.16
2023-05-19T07:11:33.449Z,56.26
2023-05-19T07:12:33.394Z,55.35
2023-05-19T07:13:33.443Z,55.88
2023-05-19T07:14:33.391Z,56.59
2023-05-19T07:15:33.393Z,57.81
2023-05-19T07:16:33.442Z,56.05
2023-05-19T07:17:33.396Z,54.84
2023-05-19T07:18:33.334Z,56.90
2023-05-19T07:19:33.370Z,57.20
2023-05-19T07:20:33.590Z,56.09
2023-05-19T07:21:33.338Z,55.68
2023-05-19T07:22:33.296Z,56.29
2023-05-19T07:23:33.311Z,55.27
2023-05-19T07:24:33.284Z,56.39
2023-05-19T07:25:33.274Z,57.23
2023-05-19T07:26:33.287Z,56.72
2023-05-19T07:27:33.274Z,56.95
2023-05-19T07:28:33.232Z,56.92
2023-05-19T07:29:33.242Z,57.33
2023-05-19T07:30:33.477Z,57.93
2023-05-19T07:31:33.296Z,58.75
2023-05-19T07:32:33.229Z,56.41
2023-05-19T07:33:33.206Z,57.20
2023-05-19T07:34:33.179Z,55.98
2023-05-19T07:35:33.194Z,55.78
2023-05-19T07:36:33.149Z,55.98
2023-05-19T07:37:33.165Z,55.98
2023-05-19T07:38:33.179Z,56.46
2023-05-19T07:39:33.148Z,56.46
2023-05-19T07:40:33.245Z,55.02
2023-05-19T07:41:34.372Z,56.21
2023-05-19T07:42:33.087Z,54.66
2023-05-19T07:43:33.107Z,54.56
2023-05-19T07:44:33.081Z,53.93
2023-05-19T07:45:33.172Z,54.13
2023-05-19T07:46:33.174Z,53.17
2023-05-19T07:47:33.077Z,52.29
2023-05-19T07:48:33.022Z,50.42
2023-05-19T07:49:33.025Z,49.82
2023-05-19T07:50:33.092Z,47.47
2023-05-19T07:51:33.011Z,47.13
2023-05-19T07:52:32.981Z,46.88
2023-05-19T07:53:32.986Z,46.70
2023-05-19T07:54:32.948Z,47.08
2023-05-19T07:55:32.957Z,45.86
2023-05-19T07:56:32.944Z,44.93
2023-05-19T07:57:32.941Z,44.71
2023-05-19T07:58:32.955Z,45.61
2023-05-19T07:59:32.895Z,45.39
2023-05-19T08:00:33.185Z,44.91
2023-05-19T08:01:32.870Z,43.90
2023-05-19T08:02:32.951Z,45.13
2023-05-19T08:03:33.040Z,45.86
2023-05-19T08:04:32.953Z,46.58
2023-05-19T08:05:32.828Z,46.80
2023-05-19T08:06:32.853Z,47.74
2023-05-19T08:07:32.824Z,47.43
2023-05-19T08:08:32.813Z,47.74
2023-05-19T08:09:32.817Z,48.34
2023-05-19T08:10:33.068Z,48.06
2023-05-19T08:11:32.767Z,47.75
2023-05-19T08:12:32.784Z,49.24
2023-05-19T08:13:32.765Z,48.11
2023-05-19T08:14:32.759Z,47.61
2023-05-19T08:15:32.774Z,47.00
2023-05-19T08:16:32.783Z,46.70
2023-05-19T08:17:32.728Z,45.39
2023-05-19T08:18:32.743Z,47.00
2023-05-19T08:19:32.689Z,46.50
2023-05-19T08:20:33.076Z,46.62
2023-05-19T08:21:32.665Z,47.25
2023-05-19T08:22:32.666Z,46.85
2023-05-19T08:23:32.645Z,47.03
2023-05-19T08:24:32.678Z,47.63
2023-05-19T08:25:32.628Z,46.95
2023-05-19T08:26:32.625Z,47.75
2023-05-19T08:27:32.605Z,47.03
2023-05-19T08:28:32.626Z,47.55
2023-05-19T08:29:32.577Z,46.75
2023-05-19T08:30:32.829Z,47.38
2023-05-19T08:31:32.702Z,47.98
2023-05-19T08:32:32.607Z,46.37
2023-05-19T08:33:32.540Z,47.38
2023-05-19T08:34:32.540Z,46.67
2023-05-19T08:35:32.542Z,46.37
2023-05-19T08:36:32.517Z,48.30
2023-05-19T08:37:34.096Z,47.42
2023-05-19T08:38:32.505Z,47.82
2023-05-19T08:39:32.470Z,48.13
2023-05-19T08:40:32.661Z,48.43
2023-05-19T08:41:32.458Z,49.44
2023-05-19T08:42:32.470Z,47.52
2023-05-19T08:43:32.428Z,48.63
2023-05-19T08:44:32.446Z,47.02
2023-05-19T08:45:32.576Z,46.81
2023-05-19T08:46:32.480Z,47.24
2023-05-19T08:47:32.425Z,47.47
2023-05-19T08:48:32.418Z,48.07
2023-05-19T08:49:32.365Z,48.58
2023-05-19T08:50:32.683Z,48.37
2023-05-19T08:51:32.368Z,48.47
2023-05-19T08:52:32.356Z,49.18
2023-05-19T08:53:34.317Z,48.27
2023-05-19T08:54:32.349Z,49.05
2023-05-19T08:55:32.427Z,49.26
2023-05-19T08:56:32.300Z,48.65
2023-05-19T08:57:32.296Z,48.93
2023-05-19T08:58:32.290Z,50.16
2023-05-19T08:59:32.254Z,49.16
2023-05-19T09:00:32.496Z,51.18
2023-05-19T09:01:32.317Z,50.47
2023-05-19T09:02:32.288Z,51.25
2023-05-19T09:03:32.274Z,48.43
2023-05-19T09:04:32.324Z,49.87
2023-05-19T09:05:32.486Z,49.87
2023-05-19T09:06:32.213Z,50.90
2023-05-19T09:07:32.164Z,50.39
2023-05-19T09:08:32.199Z,49.99
2023-05-19T09:09:32.150Z,50.39
2023-05-19T09:10:32.163Z,49.38
2023-05-19T09:11:32.116Z,49.46
2023-05-19T09:12:32.130Z,49.87
2023-05-19T09:13:32.098Z,48.45
2023-05-19T09:14:32.116Z,49.38
2023-05-19T09:15:32.253Z,49.38
2023-05-19T09:16:32.111Z,49.81
2023-05-19T09:17:32.074Z,49.81
2023-05-19T09:18:32.061Z,49.43
2023-05-19T09:19:32.144Z,51.17
2023-05-19T09:20:32.067Z,51.48
2023-05-19T09:21:32.011Z,50.97
2023-05-19T09:22:32.017Z,51.48
2023-05-19T09:23:31.986Z,51.07
2023-05-19T09:24:32.008Z,51.45
2023-05-19T09:25:32.255Z,50.54
2023-05-19T09:26:31.989Z,49.81
2023-05-19T09:27:31.948Z,50.12
2023-05-19T09:28:31.969Z,49.18
2023-05-19T09:29:31.928Z,49.28
2023-05-19T09:30:31.933Z,49.48
2023-05-19T09:31:31.976Z,48.45
2023-05-19T09:32:31.983Z,49.05
2023-05-19T09:33:31.876Z,48.15
2023-05-19T09:34:31.915Z,50.35
2023-05-19T09:35:32.100Z,48.02
2023-05-19T09:36:31.875Z,47.42
2023-05-19T09:37:31.834Z,47.02
2023-05-19T09:38:31.854Z,47.12
2023-05-19T09:39:31.818Z,46.81
2023-05-19T09:40:31.855Z,46.92
2023-05-19T09:41:31.801Z,47.22
2023-05-19T09:42:31.811Z,46.81
2023-05-19T09:43:31.826Z,46.59
2023-05-19T09:44:31.782Z,45.89
2023-05-19T09:45:31.892Z,46.06
2023-05-19T09:46:31.796Z,46.37
2023-05-19T09:47:31.786Z,48.08
2023-05-19T09:48:31.742Z,46.47
2023-05-19T09:49:31.706Z,45.97
2023-05-19T09:50:31.740Z,46.45
2023-05-19T09:51:31.681Z,48.26
2023-05-19T09:52:31.714Z,47.88
2023-05-19T09:53:31.665Z,47.47
2023-05-19T09:54:31.682Z,48.18
2023-05-19T09:55:31.830Z,47.58
2023-05-19T09:56:31.655Z,45.86
2023-05-19T09:57:31.628Z,46.57
2023-05-19T09:58:31.656Z,46.77
2023-05-19T09:59:33.536Z,45.76
2023-05-19T10:00:31.726Z,46.09
2023-05-19T10:01:31.655Z,46.19
2023-05-19T10:02:31.669Z,47.42
2023-05-19T10:03:31.553Z,47.95
2023-05-19T10:04:31.695Z,47.74
2023-05-19T10:05:31.696Z,47.34
2023-05-19T10:06:38.055Z,47.64
2023-05-19T10:07:31.522Z,48.15
2023-05-19T10:08:31.539Z,47.54
2023-05-19T10:09:31.526Z,48.43
2023-05-19T10:10:31.510Z,47.62
2023-05-19T10:11:31.464Z,48.63
2023-05-19T10:12:31.500Z,49.41
2023-05-19T10:13:31.436Z,49.52
2023-05-19T10:14:31.465Z,48.00
2023-05-19T10:15:32.087Z,48.79
2023-05-19T10:16:31.485Z,48.28
2023-05-19T10:17:31.420Z,46.75
2023-05-19T10:18:31.406Z,48.54
2023-05-19T10:19:31.427Z,47.83
2023-05-19T10:20:31.573Z,47.20
2023-05-19T10:21:31.382Z,48.21
2023-05-19T10:22:31.386Z,45.57
2023-05-19T10:23:31.373Z,45.98
2023-05-19T10:24:31.346Z,45.45
2023-05-19T10:25:31.399Z,45.35
2023-05-19T10:26:31.328Z,44.95
2023-05-19T10:27:31.295Z,43.62
2023-05-19T10:28:31.333Z,42.52
2023-05-19T10:29:31.305Z,44.23
2023-05-19T10:30:31.285Z,42.92
2023-05-19T10:31:31.262Z,42.41
2023-05-19T10:32:31.327Z,43.42
2023-05-19T10:33:31.233Z,43.82
2023-05-19T10:34:31.239Z,43.20
2023-05-19T10:35:32.422Z,41.39
2023-05-19T10:36:31.223Z,42.18
2023-05-19T10:37:31.189Z,42.18
2023-05-19T10:38:31.198Z,41.75
2023-05-19T10:39:31.157Z,41.65
2023-05-19T10:40:31.191Z,43.36
2023-05-19T10:41:31.151Z,42.83
2023-05-19T10:42:31.166Z,43.74
2023-05-19T10:43:31.120Z,42.35
2023-05-19T10:44:31.150Z,42.86
2023-05-19T10:45:31.455Z,42.16
2023-05-19T10:46:31.118Z,43.16
2023-05-19T10:47:31.102Z,42.60
2023-05-19T10:48:31.107Z,42.88
2023-05-19T10:49:31.070Z,42.13
2023-05-19T10:50:31.076Z,43.24
2023-05-19T10:51:31.040Z,43.52
2023-05-19T10:52:31.073Z,43.22
2023-05-19T10:53:31.023Z,42.60
2023-05-19T10:54:31.039Z,42.10
2023-05-19T10:55:31.242Z,41.09
2023-05-19T10:56:31.019Z,41.29
2023-05-19T10:57:30.988Z,42.38
2023-05-19T10:58:30.996Z,40.27
2023-05-19T10:59:30.965Z,41.47
2023-05-19T11:00:30.983Z,40.99
2023-05-19T11:01:31.060Z,41.61
2023-05-19T11:02:30.997Z,41.51
2023-05-19T11:03:31.030Z,40.83
2023-05-19T11:04:30.941Z,41.33
2023-05-19T11:05:31.314Z,41.13
2023-05-19T11:06:30.928Z,41.43
2023-05-19T11:07:30.886Z,41.23
2023-05-19T11:08:30.907Z,41.55
2023-05-19T11:09:39.668Z,41.74
2023-05-19T11:10:30.881Z,41.43
2023-05-19T11:11:31.880Z,41.82
2023-05-19T11:12:30.860Z,41.39
2023-05-19T11:13:30.812Z,40.97
2023-05-19T11:14:30.834Z,41.60
2023-05-19T11:15:30.999Z,41.49
2023-05-19T11:16:30.832Z,41.60
2023-05-19T11:17:31.783Z,41.21
2023-05-19T11:18:30.789Z,41.11
2023-05-19T11:19:30.794Z,40.41
2023-05-19T11:20:30.768Z,40.91
2023-05-19T11:21:30.918Z,41.39
2023-05-19T11:22:30.899Z,40.59
2023-05-19T11:23:31.828Z,40.71
2023-05-19T11:24:31.072Z,42.54
2023-05-19T11:25:31.071Z,42.94
2023-05-19T11:26:31.483Z,42.24
2023-05-19T11:27:30.979Z,41.43
2023-05-19T11:28:31.502Z,42.54
2023-05-19T11:29:32.807Z,42.03
2023-05-19T11:30:31.009Z,42.35
2023-05-19T11:31:31.430Z,43.36
2023-05-19T11:32:31.118Z,43.66
2023-05-19T11:33:31.378Z,44.36
2023-05-19T11:34:31.123Z,44.46
2023-05-19T11:35:32.166Z,42.88
2023-05-19T11:36:31.388Z,43.68
2023-05-19T11:37:30.918Z,42.07
2023-05-19T11:38:31.340Z,41.67
2023-05-19T11:39:30.872Z,42.35
2023-05-19T11:40:30.756Z,42.25
2023-05-19T11:41:31.287Z,41.75
2023-05-19T11:42:30.897Z,43.56
2023-05-19T11:43:31.274Z,42.55
2023-05-19T11:44:31.274Z,42.46
2023-05-19T11:45:31.137Z,42.24
2023-05-19T11:46:31.275Z,44.14
2023-05-19T11:47:38.791Z,42.72
2023-05-19T11:48:31.401Z,42.82
2023-05-19T11:49:31.220Z,41.91
2023-05-19T11:50:31.286Z,40.81
2023-05-19T11:51:31.216Z,41.21
2023-05-19T11:52:31.050Z,41.79
2023-05-19T11:54:31.183Z,40.79
2023-05-19T11:55:31.147Z,41.09
2023-05-19T11:56:31.180Z,41.09
2023-05-19T11:57:31.142Z,41.19
2023-05-19T11:58:30.362Z,41.57
2023-05-19T11:59:30.318Z,40.69
2023-05-19T12:00:30.364Z,40.15
2023-05-19T12:01:30.308Z,40.33
2023-05-19T12:02:30.361Z,39.59
2023-05-19T12:03:30.528Z,38.87
2023-05-19T12:04:30.322Z,38.98
2023-05-19T12:05:30.371Z,38.48
2023-05-19T12:06:30.380Z,39.18
2023-05-19T12:07:30.253Z,39.65
2023-05-19T12:08:30.277Z,39.40
2023-05-19T12:09:30.235Z,38.09
2023-05-19T12:10:30.219Z,36.79
2023-05-19T12:11:30.252Z,36.39
2023-05-19T12:12:30.182Z,36.29
2023-05-19T12:13:30.199Z,37.38
2023-05-19T12:14:30.171Z,36.51
2023-05-19T12:15:30.205Z,36.02
2023-05-19T12:17:30.185Z,37.10
2023-05-19T12:18:30.183Z,37.63
2023-05-19T12:19:30.229Z,38.15
2023-05-19T12:20:30.095Z,38.13
2023-05-19T12:21:33.883Z,39.33
2023-05-19T12:22:30.073Z,38.83
2023-05-19T12:23:30.144Z,39.03
2023-05-19T12:24:30.065Z,38.71
2023-05-19T12:25:30.101Z,39.13
2023-05-19T12:26:30.032Z,37.41
2023-05-19T12:27:30.053Z,37.61
2023-05-19T12:28:30.028Z,38.21
2023-05-19T12:29:30.094Z,37.29
2023-05-19T12:30:30.073Z,36.88
2023-05-19T12:31:30.086Z,37.08
2023-05-19T12:32:29.992Z,36.16
2023-05-19T12:33:29.979Z,35.66
2023-05-19T12:34:29.962Z,36.06
2023-05-19T12:35:29.962Z,37.76
2023-05-19T12:36:29.937Z,36.15
2023-05-19T12:37:30.161Z,36.15
2023-05-19T12:38:29.917Z,37.34
2023-05-19T12:39:29.915Z,38.32
2023-05-19T12:40:29.992Z,38.00
2023-05-19T12:41:29.917Z,36.59
2023-05-19T12:42:29.881Z,36.21
2023-05-19T12:43:29.899Z,35.19
2023-05-19T12:44:29.841Z,34.09
2023-05-19T12:45:29.960Z,34.50
2023-05-19T12:46:29.987Z,35.59
2023-05-19T12:47:29.857Z,35.51
2023-05-19T12:48:29.802Z,34.51
2023-05-19T12:49:29.816Z,36.01
2023-05-19T12:50:29.784Z,36.22
2023-05-19T12:51:29.804Z,36.13
2023-05-19T12:52:29.781Z,36.80
2023-05-19T12:53:29.768Z,36.59
2023-05-19T12:54:29.745Z,35.46